Youngstown, Florida
Current Conditions -  °F | °C
As of 4:53 AM on Sunday 23 Nov 2014 (Local Time) from KECP Reporting Station
Overcast Overcast  
Wind Chill: 70°   Ceiling: 800
Heat Index: 70°   Visibility: 10mi
Dew Point: 66°   Wind: 9mph
Humidity: 87%   Direction: 110°ESE
Pressure: 29.88"   Gusts: NA
Location:  30.36°N, 85.44°W
Report Text: KECP 231053Z AUTO 11008KT 10SM OVC008 21/19 A2988 RMK AO2 CIG 008V012 SLP128 T02110189 $
Loading
Personal Weather Stations






























Interactive Weather Map New forecast layout! Learn more

10-Day Weather Forecast

Advertisements
Track Severe Weather on mobile